Vlieland — PBFD — position and weather

sailwx.info

Track history (hours):
 
Tides and Currents Weather Stations Pressure Air Temp Water Temp Dewpoint Dewpoint Depression Visibility Wind Speed Wind Dir Waves Ship Positions

Vlieland

Last reported at 2018-Jun-22 07:46 UTC. Time now 2018-Jun-23 02:57 UTC.
Position N 57°27' E 011°10'.

Length 111 m; draft 5.8 m.

Type: Ship. MMSI: 244376000.

Date/timePositionNaut miles runAvg speedWind from/ knotsBaromVisibWave heightAir tempDewpointWater temp
2018-Jun-22 07:46N 57°27' E 011°10'411.5
2018-Jun-22 07:26N 57°24' E 011°15'511.3
2018-Jun-22 07:00N 57°20' E 011°20'611.1
2018-Jun-22 06:29N 57°16' E 011°27'8810.1
2018-Jun-21 21:47N 55°58' E 012°42'3 9.1
2018-Jun-21 21:27N 55°55' E 012°44'510.3
2018-Jun-21 21:00N 55°51' E 012°43'5 9.8
2018-Jun-21 20:30N 55°46' E 012°42'510.2
2018-Jun-21 20:00N 55°41' E 012°41'5 9.0
2018-Jun-21 19:30N 55°36' E 012°42'5 9.3
2018-Jun-21 19:00N 55°32' E 012°43'5 9.9
2018-Jun-21 18:30N 55°27' E 012°42'510.0
2018-Jun-21 18:00N 55°22' E 012°41'5 9.0
2018-Jun-21 17:30N 55°18' E 012°45'610.2
2018-Jun-21 16:57N 55°16' E 012°54'510.3
2018-Jun-21 16:28N 55°16' E 013°03'610.5
2018-Jun-21 15:56N 55°15' E 013°13'3311.1
2018-Jun-21 12:56N 55°14' E 014°11'610.5
2018-Jun-21 12:24N 55°16' E 014°20'511.9
2018-Jun-21 12:00N 55°20' E 014°26'711.7
2018-Jun-21 11:22N 55°25' E 014°35'511.6
2018-Jun-21 10:54N 55°28' E 014°43'611.3
2018-Jun-21 10:21N 55°31' E 014°52'511.4
2018-Jun-21 09:55N 55°33' E 014°60'611.3
2018-Jun-21 09:25N 55°36' E 015°09'28910.8
2018-Jun-20 06:46N 59°45' E 019°43'311.8
2018-Jun-20 06:29N 59°48' E 019°39'611.7
2018-Jun-20 05:58N 59°53' E 019°32'511.8
2018-Jun-20 05:30N 59°57' E 019°25'612.1
2018-Jun-20 05:00N 60°01' E 019°17'612.1
2018-Jun-20 04:30N 60°06' E 019°10'611.7
2018-Jun-20 03:59N 60°11' E 019°02'611.7
2018-Jun-20 03:30N 60°17' E 019°01'611.6
2018-Jun-20 03:00N 60°22' E 019°00'711.7
2018-Jun-20 02:24N 60°29' E 018°60'6610.7
2018-Jun-19 20:10N 61°06' E 020°54'211.1
2018-Jun-19 20:00N 61°07' E 020°57'510.7
2018-Jun-19 19:30N 61°08' E 021°08'611.6
2018-Jun-19 18:59N 61°06' E 021°20'4 8.8
2018-Jun-19 18:31N 61°08' E 021°28'0 0.1
2018-Jun-19 18:00N 61°08' E 021°28'0 0.0
2018-Jun-19 17:22N 61°08' E 021°28'0 0.0
2018-Jun-19 16:50N 61°08' E 021°28'0 0.0
2018-Jun-19 16:30N 61°08' E 021°28'0 0.0
2018-Jun-19 15:55N 61°08' E 021°28'0 0.0
2018-Jun-19 15:30N 61°08' E 021°28'0 0.0
2018-Jun-19 14:56N 61°08' E 021°28'0 0.0
2018-Jun-19 14:26N 61°08' E 021°28'0 0.0
2018-Jun-19 13:58N 61°08' E 021°28'0 0.0
2018-Jun-19 13:28N 61°08' E 021°28'0 0.0
2018-Jun-19 12:58N 61°08' E 021°28'0 0.0
2018-Jun-19 12:29N 61°08' E 021°28'0 0.0
2018-Jun-19 11:58N 61°08' E 021°28'0 0.0
2018-Jun-19 11:30N 61°08' E 021°28'0 0.0
2018-Jun-19 11:01N 61°08' E 021°28'0 0.0
2018-Jun-19 10:27N 61°08' E 021°28'0 0.0
2018-Jun-19 09:58N 61°08' E 021°28'0 0.0
2018-Jun-19 09:27N 61°08' E 021°28'0 0.0
2018-Jun-19 08:53N 61°08' E 021°28'0 0.0
2018-Jun-19 08:30N 61°08' E 021°28'0 0.0
2018-Jun-19 07:59N 61°08' E 021°28'0 0.0
2018-Jun-19 07:30N 61°08' E 021°28'0 0.0
2018-Jun-19 07:00N 61°08' E 021°28'0 0.0
2018-Jun-19 06:28N 61°08' E 021°28'0 0.0
2018-Jun-19 06:00N 61°08' E 021°28'0 0.0
2018-Jun-19 05:30N 61°08' E 021°28'0 0.0
2018-Jun-19 05:00N 61°08' E 021°28'0 0.0
2018-Jun-19 04:28N 61°08' E 021°28'0 0.0
2018-Jun-19 03:59N 61°08' E 021°28'0 0.0
2018-Jun-19 03:29N 61°08' E 021°28'0 0.0
2018-Jun-19 02:45N 61°08' E 021°28'0 0.0
2018-Jun-19 02:27N 61°08' E 021°28'0 0.0
2018-Jun-19 01:57N 61°08' E 021°28'0 0.0
2018-Jun-19 01:30N 61°08' E 021°28'0 0.0
2018-Jun-19 01:00N 61°08' E 021°28'0 0.0
2018-Jun-19 00:19N 61°08' E 021°28'0 0.0
2018-Jun-18 23:54N 61°08' E 021°28'0 0.0
2018-Jun-18 23:24N 61°08' E 021°28'0 0.0
2018-Jun-18 22:54N 61°08' E 021°28'0 0.0
2018-Jun-18 22:27N 61°08' E 021°28'0 0.0
2018-Jun-18 22:00N 61°08' E 021°28'0 0.0
2018-Jun-18 21:26N 61°08' E 021°28'0 0.0
2018-Jun-18 20:59N 61°08' E 021°28'0 0.0
2018-Jun-18 20:30N 61°08' E 021°28'0 0.0
2018-Jun-18 19:58N 61°08' E 021°28'0 0.0
2018-Jun-18 19:29N 61°08' E 021°28'0 0.0
2018-Jun-18 18:57N 61°08' E 021°28'0 0.0
2018-Jun-18 18:27N 61°08' E 021°28'0 0.0
2018-Jun-18 18:00N 61°08' E 021°28'0 0.0
2018-Jun-18 17:24N 61°08' E 021°28'0 0.0
2018-Jun-18 16:51N 61°08' E 021°28'0 0.0
2018-Jun-18 16:21N 61°08' E 021°28'0 0.0
2018-Jun-18 15:54N 61°08' E 021°28'0 0.0
2018-Jun-18 15:12N 61°08' E 021°28'0 0.0
2018-Jun-18 14:51N 61°08' E 021°28'0 0.0
2018-Jun-18 14:24N 61°08' E 021°28'0 0.0
2018-Jun-18 13:57N 61°08' E 021°28'0 0.0
2018-Jun-18 13:27N 61°08' E 021°28'0 0.0
2018-Jun-18 12:54N 61°08' E 021°28'0 0.0
2018-Jun-18 12:28N 61°08' E 021°28'0 0.0
2018-Jun-18 12:00N 61°08' E 021°28'0 0.0
2018-Jun-18 11:29N 61°08' E 021°28'0 0.0
2018-Jun-18 11:00N 61°08' E 021°28'0 0.0
2018-Jun-18 10:29N 61°08' E 021°28'0 0.0
2018-Jun-18 10:00N 61°08' E 021°28'0 0.0
2018-Jun-18 09:30N 61°08' E 021°28'0 0.0
2018-Jun-18 08:53N 61°08' E 021°28'0 0.0
2018-Jun-18 08:29N 61°08' E 021°28'0 0.0
2018-Jun-18 07:58N 61°08' E 021°28'0 0.0
2018-Jun-18 07:30N 61°08' E 021°28'0 0.0
2018-Jun-18 06:59N 61°08' E 021°28'0 0.0
2018-Jun-18 06:29N 61°08' E 021°28'0 0.0
2018-Jun-18 05:54N 61°08' E 021°28'0 0.0
2018-Jun-18 05:28N 61°08' E 021°28'0 0.0
2018-Jun-18 04:59N 61°08' E 021°28'0 0.0
2018-Jun-18 04:29N 61°08' E 021°28'0 0.0
2018-Jun-18 03:59N 61°08' E 021°28'0 0.0
2018-Jun-18 03:29N 61°08' E 021°28'0 0.0
2018-Jun-18 02:57N 61°08' E 021°28'0 0.0
2018-Jun-18 02:29N 61°08' E 021°28'0 0.0
2018-Jun-18 01:54N 61°08' E 021°28'0 0.0
2018-Jun-18 01:24N 61°08' E 021°28'0 0.0
2018-Jun-18 01:00N 61°08' E 021°28'0 0.0
2018-Jun-18 00:25N 61°08' E 021°28'0 0.0
2018-Jun-18 00:00N 61°08' E 021°28'0 0.0
2018-Jun-17 23:24N 61°08' E 021°28'0 0.0
2018-Jun-17 22:54N 61°08' E 021°28'0 0.0
2018-Jun-17 22:27N 61°08' E 021°28'0 0.0
2018-Jun-17 22:00N 61°08' E 021°28'0 0.0
2018-Jun-17 21:27N 61°08' E 021°28'0 0.0
2018-Jun-17 20:51N 61°08' E 021°28'0 0.0
2018-Jun-17 20:27N 61°08' E 021°28'0 0.0
2018-Jun-17 19:54N 61°08' E 021°28'0 0.0
2018-Jun-17 19:24N 61°08' E 021°28'0 0.0
2018-Jun-17 18:52N 61°08' E 021°28'0 0.0
2018-Jun-17 18:24N 61°08' E 021°28'0 0.0
2018-Jun-17 18:00N 61°08' E 021°28'0 0.0
2018-Jun-17 17:24N 61°08' E 021°28'0 0.0
2018-Jun-17 16:51N 61°08' E 021°28'0 0.0
2018-Jun-17 16:30N 61°08' E 021°28'0 0.0
2018-Jun-17 15:57N 61°08' E 021°28'0 0.0
2018-Jun-17 15:24N 61°08' E 021°28'0 0.0
2018-Jun-17 14:48N 61°08' E 021°28'0 0.0
2018-Jun-17 14:30N 61°08' E 021°28'0 0.0
2018-Jun-17 13:48N 61°08' E 021°28'0 0.0
2018-Jun-17 13:26N 61°08' E 021°28'0 0.0
2018-Jun-17 12:45N 61°08' E 021°28'0 0.0
2018-Jun-17 12:24N 61°08' E 021°28'0 0.0
2018-Jun-17 11:56N 61°08' E 021°28'0 0.0
2018-Jun-17 11:26N 61°08' E 021°28'0 0.0
2018-Jun-17 10:56N 61°08' E 021°28'0 0.0
2018-Jun-17 10:29N 61°08' E 021°28'0 0.0
2018-Jun-17 09:50N 61°08' E 021°28'0 0.0
2018-Jun-17 09:26N 61°08' E 021°28'0 0.0
2018-Jun-17 08:59N 61°08' E 021°28'0 0.0
2018-Jun-17 08:26N 61°08' E 021°28'0 0.0
2018-Jun-17 07:57N 61°08' E 021°28'0 0.0
2018-Jun-17 07:29N 61°08' E 021°28'0 0.2
2018-Jun-17 07:00N 61°08' E 021°27'2 4.3
2018-Jun-17 06:30N 61°09' E 021°24'510.3
2018-Jun-17 05:59N 61°11' E 021°14'126 8.3
2018-Jun-16 14:46N 63°16' E 020°30'  
Track history (hours):
 
Tides and Currents Weather Stations Pressure Air Temp Water Temp Dewpoint Dewpoint Depression Visibility Wind Speed Wind Dir Waves Ship Positions

Vlieland

Last reported at 2018-Jun-22 07:46 UTC. Time now 2018-Jun-23 02:57 UTC.
Position N 57°27' E 011°10'.

Length 111 m; draft 5.8 m.

Type: Ship. MMSI: 244376000.

Date/timePositionNaut miles runAvg speedWind from/ knotsBaromVisibWave heightAir tempDewpointWater temp
2018-Jun-22 07:46N 57°27' E 011°10'411.5
2018-Jun-22 07:26N 57°24' E 011°15'511.3
2018-Jun-22 07:00N 57°20' E 011°20'611.1
2018-Jun-22 06:29N 57°16' E 011°27'8810.1
2018-Jun-21 21:47N 55°58' E 012°42'3 9.1
2018-Jun-21 21:27N 55°55' E 012°44'510.3
2018-Jun-21 21:00N 55°51' E 012°43'5 9.8
2018-Jun-21 20:30N 55°46' E 012°42'510.2
2018-Jun-21 20:00N 55°41' E 012°41'5 9.0
2018-Jun-21 19:30N 55°36' E 012°42'5 9.3
2018-Jun-21 19:00N 55°32' E 012°43'5 9.9
2018-Jun-21 18:30N 55°27' E 012°42'510.0
2018-Jun-21 18:00N 55°22' E 012°41'5 9.0
2018-Jun-21 17:30N 55°18' E 012°45'610.2
2018-Jun-21 16:57N 55°16' E 012°54'510.3
2018-Jun-21 16:28N 55°16' E 013°03'610.5
2018-Jun-21 15:56N 55°15' E 013°13'3311.1
2018-Jun-21 12:56N 55°14' E 014°11'610.5
2018-Jun-21 12:24N 55°16' E 014°20'511.9
2018-Jun-21 12:00N 55°20' E 014°26'711.7
2018-Jun-21 11:22N 55°25' E 014°35'511.6
2018-Jun-21 10:54N 55°28' E 014°43'611.3
2018-Jun-21 10:21N 55°31' E 014°52'511.4
2018-Jun-21 09:55N 55°33' E 014°60'611.3
2018-Jun-21 09:25N 55°36' E 015°09'28910.8
2018-Jun-20 06:46N 59°45' E 019°43'311.8
2018-Jun-20 06:29N 59°48' E 019°39'611.7
2018-Jun-20 05:58N 59°53' E 019°32'511.8
2018-Jun-20 05:30N 59°57' E 019°25'612.1
2018-Jun-20 05:00N 60°01' E 019°17'612.1
2018-Jun-20 04:30N 60°06' E 019°10'611.7
2018-Jun-20 03:59N 60°11' E 019°02'611.7
2018-Jun-20 03:30N 60°17' E 019°01'611.6
2018-Jun-20 03:00N 60°22' E 019°00'711.7
2018-Jun-20 02:24N 60°29' E 018°60'6610.7
2018-Jun-19 20:10N 61°06' E 020°54'211.1
2018-Jun-19 20:00N 61°07' E 020°57'510.7
2018-Jun-19 19:30N 61°08' E 021°08'611.6
2018-Jun-19 18:59N 61°06' E 021°20'4 8.8
2018-Jun-19 18:31N 61°08' E 021°28'0 0.1
2018-Jun-19 18:00N 61°08' E 021°28'0 0.0
2018-Jun-19 17:22N 61°08' E 021°28'0 0.0
2018-Jun-19 16:50N 61°08' E 021°28'0 0.0
2018-Jun-19 16:30N 61°08' E 021°28'0 0.0
2018-Jun-19 15:55N 61°08' E 021°28'0 0.0
2018-Jun-19 15:30N 61°08' E 021°28'0 0.0
2018-Jun-19 14:56N 61°08' E 021°28'0 0.0
2018-Jun-19 14:26N 61°08' E 021°28'0 0.0
2018-Jun-19 13:58N 61°08' E 021°28'0 0.0
2018-Jun-19 13:28N 61°08' E 021°28'0 0.0
2018-Jun-19 12:58N 61°08' E 021°28'0 0.0
2018-Jun-19 12:29N 61°08' E 021°28'0 0.0
2018-Jun-19 11:58N 61°08' E 021°28'0 0.0
2018-Jun-19 11:30N 61°08' E 021°28'0 0.0
2018-Jun-19 11:01N 61°08' E 021°28'0 0.0
2018-Jun-19 10:27N 61°08' E 021°28'0 0.0
2018-Jun-19 09:58N 61°08' E 021°28'0 0.0
2018-Jun-19 09:27N 61°08' E 021°28'0 0.0
2018-Jun-19 08:53N 61°08' E 021°28'0 0.0
2018-Jun-19 08:30N 61°08' E 021°28'0 0.0
2018-Jun-19 07:59N 61°08' E 021°28'0 0.0
2018-Jun-19 07:30N 61°08' E 021°28'0 0.0
2018-Jun-19 07:00N 61°08' E 021°28'0 0.0
2018-Jun-19 06:28N 61°08' E 021°28'0 0.0
2018-Jun-19 06:00N 61°08' E 021°28'0 0.0
2018-Jun-19 05:30N 61°08' E 021°28'0 0.0
2018-Jun-19 05:00N 61°08' E 021°28'0 0.0
2018-Jun-19 04:28N 61°08' E 021°28'0 0.0
2018-Jun-19 03:59N 61°08' E 021°28'0 0.0
2018-Jun-19 03:29N 61°08' E 021°28'0 0.0
2018-Jun-19 02:45N 61°08' E 021°28'0 0.0
2018-Jun-19 02:27N 61°08' E 021°28'0 0.0
2018-Jun-19 01:57N 61°08' E 021°28'0 0.0
2018-Jun-19 01:30N 61°08' E 021°28'0 0.0
2018-Jun-19 01:00N 61°08' E 021°28'0 0.0
2018-Jun-19 00:19N 61°08' E 021°28'0 0.0
2018-Jun-18 23:54N 61°08' E 021°28'0 0.0
2018-Jun-18 23:24N 61°08' E 021°28'0 0.0
2018-Jun-18 22:54N 61°08' E 021°28'0 0.0
2018-Jun-18 22:27N 61°08' E 021°28'0 0.0
2018-Jun-18 22:00N 61°08' E 021°28'0 0.0
2018-Jun-18 21:26N 61°08' E 021°28'0 0.0
2018-Jun-18 20:59N 61°08' E 021°28'0 0.0
2018-Jun-18 20:30N 61°08' E 021°28'0 0.0
2018-Jun-18 19:58N 61°08' E 021°28'0 0.0
2018-Jun-18 19:29N 61°08' E 021°28'0 0.0
2018-Jun-18 18:57N 61°08' E 021°28'0 0.0
2018-Jun-18 18:27N 61°08' E 021°28'0 0.0
2018-Jun-18 18:00N 61°08' E 021°28'0 0.0
2018-Jun-18 17:24N 61°08' E 021°28'0 0.0
2018-Jun-18 16:51N 61°08' E 021°28'0 0.0
2018-Jun-18 16:21N 61°08' E 021°28'0 0.0
2018-Jun-18 15:54N 61°08' E 021°28'0 0.0
2018-Jun-18 15:12N 61°08' E 021°28'0 0.0
2018-Jun-18 14:51N 61°08' E 021°28'0 0.0
2018-Jun-18 14:24N 61°08' E 021°28'0 0.0
2018-Jun-18 13:57N 61°08' E 021°28'0 0.0
2018-Jun-18 13:27N 61°08' E 021°28'0 0.0
2018-Jun-18 12:54N 61°08' E 021°28'0 0.0
2018-Jun-18 12:28N 61°08' E 021°28'0 0.0
2018-Jun-18 12:00N 61°08' E 021°28'0 0.0
2018-Jun-18 11:29N 61°08' E 021°28'0 0.0
2018-Jun-18 11:00N 61°08' E 021°28'0 0.0
2018-Jun-18 10:29N 61°08' E 021°28'0 0.0
2018-Jun-18 10:00N 61°08' E 021°28'0 0.0
2018-Jun-18 09:30N 61°08' E 021°28'0 0.0
2018-Jun-18 08:53N 61°08' E 021°28'0 0.0
2018-Jun-18 08:29N 61°08' E 021°28'0 0.0
2018-Jun-18 07:58N 61°08' E 021°28'0 0.0
2018-Jun-18 07:30N 61°08' E 021°28'0 0.0
2018-Jun-18 06:59N 61°08' E 021°28'0 0.0
2018-Jun-18 06:29N 61°08' E 021°28'0 0.0
2018-Jun-18 05:54N 61°08' E 021°28'0 0.0
2018-Jun-18 05:28N 61°08' E 021°28'0 0.0
2018-Jun-18 04:59N 61°08' E 021°28'0 0.0
2018-Jun-18 04:29N 61°08' E 021°28'0 0.0
2018-Jun-18 03:59N 61°08' E 021°28'0 0.0
2018-Jun-18 03:29N 61°08' E 021°28'0 0.0
2018-Jun-18 02:57N 61°08' E 021°28'0 0.0
2018-Jun-18 02:29N 61°08' E 021°28'0 0.0
2018-Jun-18 01:54N 61°08' E 021°28'0 0.0
2018-Jun-18 01:24N 61°08' E 021°28'0 0.0
2018-Jun-18 01:00N 61°08' E 021°28'0 0.0
2018-Jun-18 00:25N 61°08' E 021°28'0 0.0
2018-Jun-18 00:00N 61°08' E 021°28'0 0.0
2018-Jun-17 23:24N 61°08' E 021°28'0 0.0
2018-Jun-17 22:54N 61°08' E 021°28'0 0.0
2018-Jun-17 22:27N 61°08' E 021°28'0 0.0
2018-Jun-17 22:00N 61°08' E 021°28'0 0.0
2018-Jun-17 21:27N 61°08' E 021°28'0 0.0
2018-Jun-17 20:51N 61°08' E 021°28'0 0.0
2018-Jun-17 20:27N 61°08' E 021°28'0 0.0
2018-Jun-17 19:54N 61°08' E 021°28'0 0.0
2018-Jun-17 19:24N 61°08' E 021°28'0 0.0
2018-Jun-17 18:52N 61°08' E 021°28'0 0.0
2018-Jun-17 18:24N 61°08' E 021°28'0 0.0
2018-Jun-17 18:00N 61°08' E 021°28'0 0.0
2018-Jun-17 17:24N 61°08' E 021°28'0 0.0
2018-Jun-17 16:51N 61°08' E 021°28'0 0.0
2018-Jun-17 16:30N 61°08' E 021°28'0 0.0
2018-Jun-17 15:57N 61°08' E 021°28'0 0.0
2018-Jun-17 15:24N 61°08' E 021°28'0 0.0
2018-Jun-17 14:48N 61°08' E 021°28'0 0.0
2018-Jun-17 14:30N 61°08' E 021°28'0 0.0
2018-Jun-17 13:48N 61°08' E 021°28'0 0.0
2018-Jun-17 13:26N 61°08' E 021°28'0 0.0
2018-Jun-17 12:45N 61°08' E 021°28'0 0.0
2018-Jun-17 12:24N 61°08' E 021°28'0 0.0
2018-Jun-17 11:56N 61°08' E 021°28'0 0.0
2018-Jun-17 11:26N 61°08' E 021°28'0 0.0
2018-Jun-17 10:56N 61°08' E 021°28'0 0.0
2018-Jun-17 10:29N 61°08' E 021°28'0 0.0
2018-Jun-17 09:50N 61°08' E 021°28'0 0.0
2018-Jun-17 09:26N 61°08' E 021°28'0 0.0
2018-Jun-17 08:59N 61°08' E 021°28'0 0.0
2018-Jun-17 08:26N 61°08' E 021°28'0 0.0
2018-Jun-17 07:57N 61°08' E 021°28'0 0.0
2018-Jun-17 07:29N 61°08' E 021°28'0 0.2
2018-Jun-17 07:00N 61°08' E 021°27'2 4.3
2018-Jun-17 06:30N 61°09' E 021°24'510.3
2018-Jun-17 05:59N 61°11' E 021°14'126 8.3
2018-Jun-16 14:46N 63°16' E 020°30'  

Dump ship's entire track history